Time;durP1;ratioP1;P1;durP2;ratioP2;P2;SDS_P1;SDS_P2;PMS_P1;PMS_P2;Temp;Humidity;BMP_temperature;BMP_pressure;BME280_temperature;BME280_humidity;BME280_pressure;Samples;Min_cycle;Max_cycle;Signal;HPM_P1;HPM_P2
2021/06/03 00:01:50;;;;;;;;;;;;;;;27.21;37.58;101002.47;5034724;28;960;-37
2021/06/03 00:04:16;;;;;;;;;;;;;;;27.07;37.60;101001.38;4997855;28;1004;-41
2021/06/03 00:06:41;;;;;;;;;;;;;;;26.89;38.27;101005.97;4997325;28;788;-43
2021/06/03 00:09:07;;;;;;;;;;;;;;;27.04;37.86;100996.31;4997272;28;848;-33
2021/06/03 00:11:32;;;;;;;;;;;;;;;26.88;37.94;100995.34;4997102;28;784;-32
2021/06/03 00:13:57;;;;;;;;;;;;;;;26.78;38.49;101000.94;4997078;28;1260;-41
2021/06/03 00:16:23;;;;;;;;;;;;;;;26.97;38.12;100996.16;4997197;28;844;-42
2021/06/03 00:18:48;;;;;;;;;;;;;;;26.92;38.08;100990.44;4996745;28;1914;-32
2021/06/03 00:21:13;;;;;;;;;;;;;;;26.73;38.20;100995.22;4997141;28;837;-41
2021/06/03 00:23:39;;;;;;;;;;;;;;;26.86;38.19;100994.69;4996968;28;880;-40
2021/06/03 00:26:04;;;;;;;;;;;;;;;26.92;38.20;100993.97;4997160;28;748;-39
2021/06/03 00:28:29;;;;;;;;;;;;;;;26.75;38.29;100985.97;4979264;28;1127;-42
2021/06/03 00:30:55;;;;;;;;;;;;;;;26.72;38.54;100990.84;4996692;28;761;-30
2021/06/03 00:33:20;;;;;;;;;;;;;;;26.93;38.09;100984.00;4996675;28;938;-44
2021/06/03 00:35:45;;;;;;;;;;;;;;;26.71;38.63;100984.59;4996829;28;872;-43
2021/06/03 00:38:11;;;;;;;;;;;;;;;26.59;38.68;100989.53;4997099;28;1902;-32
2021/06/03 00:40:37;;;;;;;;;;;;;;;26.74;38.62;100991.53;4996732;28;757;-40
2021/06/03 00:43:02;;;;;;;;;;;;;;;26.73;38.53;100989.84;4997282;28;831;-44
2021/06/03 00:45:32;;;;;;;;;;;;;;;26.60;38.82;100987.69;4997206;28;761;-30
2021/06/03 00:47:57;;;;;;;;;;;;;;;26.76;38.68;100990.31;5004833;28;1016;-40
2021/06/03 00:50:25;;;;;;;;;;;;;;;26.91;38.28;100989.59;5016714;28;808;-31
2021/06/03 00:52:50;;;;;;;;;;;;;;;26.71;38.71;100992.69;5031159;28;1121;-43
2021/06/03 00:55:15;;;;;;;;;;;;;;;26.61;38.91;100992.91;5036391;28;832;-44
2021/06/03 00:57:41;;;;;;;;;;;;;;;26.72;38.85;100994.41;5039890;28;1963;-43
2021/06/03 01:00:07;;;;;;;;;;;;;;;26.63;38.79;100990.88;5040205;28;868;-37
2021/06/03 01:02:32;;;;;;;;;;;;;;;26.57;39.21;100983.50;5026710;28;940;-43
2021/06/03 01:04:58;;;;;;;;;;;;;;;26.82;38.41;100987.94;5000816;28;737;-32
2021/06/03 01:07:23;;;;;;;;;;;;;;;26.83;38.53;100989.63;5000649;28;741;-44
2021/06/03 01:10:17;;;;;;;;;;;;;;;26.72;38.73;100985.47;5000378;28;848;-43
2021/06/03 01:12:43;;;;;;;;;;;;;;;26.71;38.79;100984.59;4987422;28;1294;-43
2021/06/03 01:15:08;;;;;;;;;;;;;;;26.78;38.32;100984.75;5000085;28;800;-38
2021/06/03 01:17:34;;;;;;;;;;;;;;;26.66;38.66;100989.69;4982283;28;1965;-43
2021/06/03 01:19:59;;;;;;;;;;;;;;;26.51;39.15;100976.91;5000796;28;800;-43
2021/06/03 01:22:24;;;;;;;;;;;;;;;26.88;38.56;100979.13;4982665;28;837;-44
2021/06/03 01:24:56;;;;;;;;;;;;;;;27.11;37.64;100981.09;5000103;28;860;-44
2021/06/03 01:27:24;;;;;;;;;;;;;;;26.93;38.14;100984.00;5000408;28;780;-43
2021/06/03 01:29:52;;;;;;;;;;;;;;;26.68;38.82;100981.41;5000053;28;797;-43
2021/06/03 01:32:18;;;;;;;;;;;;;;;26.74;38.72;100986.94;4999351;28;941;-33
2021/06/03 01:34:43;;;;;;;;;;;;;;;27.60;37.15;100984.47;5000246;28;733;-43
2021/06/03 01:37:09;;;;;;;;;;;;;;;27.49;37.05;100988.47;4982592;28;741;-40
2021/06/03 01:39:34;;;;;;;;;;;;;;;27.06;37.61;100988.88;4999516;28;1902;-38
2021/06/03 01:41:59;;;;;;;;;;;;;;;27.00;38.00;100987.69;4982819;28;796;-42
2021/06/03 01:44:25;;;;;;;;;;;;;;;26.90;38.03;100985.22;4982549;28;765;-44
2021/06/03 01:46:50;;;;;;;;;;;;;;;26.75;38.40;100982.41;4999562;28;1141;-43
2021/06/03 01:49:16;;;;;;;;;;;;;;;26.89;38.32;100988.94;4982619;28;1032;-44
2021/06/03 01:51:41;;;;;;;;;;;;;;;27.00;38.05;100991.25;4992228;28;1137;-43
2021/06/03 01:54:06;;;;;;;;;;;;;;;26.74;38.42;100992.34;5038770;28;755;-37
2021/06/03 01:56:32;;;;;;;;;;;;;;;26.80;38.34;100989.97;5038867;28;1444;-43
2021/06/03 01:58:58;;;;;;;;;;;;;;;26.97;38.08;100988.06;5021144;28;1906;-33
2021/06/03 02:01:23;;;;;;;;;;;;;;;26.78;38.26;100984.75;5038572;28;963;-43
2021/06/03 02:03:48;;;;;;;;;;;;;;;26.76;38.28;100979.53;5005691;28;948;-37
2021/06/03 02:06:14;;;;;;;;;;;;;;;27.10;37.65;100984.81;4999720;28;745;-34
2021/06/03 02:08:39;;;;;;;;;;;;;;;27.07;38.02;100991.41;4998306;28;879;-43
2021/06/03 02:11:05;;;;;;;;;;;;;;;26.80;38.21;100996.22;4999461;28;811;-41
2021/06/03 02:13:34;;;;;;;;;;;;;;;26.80;38.32;100992.66;4998796;28;1098;-43
2021/06/03 02:16:06;;;;;;;;;;;;;;;27.03;37.67;100987.38;4982137;28;828;-43
2021/06/03 02:18:32;;;;;;;;;;;;;;;26.81;38.29;100983.56;4998722;28;1969;-43
2021/06/03 02:20:58;;;;;;;;;;;;;;;26.77;38.58;100985.78;4981676;28;821;-43
2021/06/03 02:23:23;;;;;;;;;;;;;;;27.13;37.74;100990.69;4981563;28;733;-43
2021/06/03 02:25:49;;;;;;;;;;;;;;;27.10;37.84;100984.81;4981698;28;869;-43
2021/06/03 02:28:14;;;;;;;;;;;;;;;26.89;38.34;100987.06;4993259;28;1169;-34
2021/06/03 02:30:39;;;;;;;;;;;;;;;26.86;38.13;100983.91;5018491;28;713;-43
2021/06/03 02:33:05;;;;;;;;;;;;;;;26.96;38.01;100980.97;4990569;28;1012;-43
2021/06/03 02:35:30;;;;;;;;;;;;;;;26.77;38.21;100980.38;4999053;28;812;-43
2021/06/03 02:37:55;;;;;;;;;;;;;;;26.86;38.24;100979.31;4998371;28;1902;-43
2021/06/03 02:40:25;;;;;;;;;;;;;;;27.04;37.69;100978.28;4998962;28;789;-42
2021/06/03 02:42:51;;;;;;;;;;;;;;;27.01;37.82;100983.97;4998354;28;896;-41
2021/06/03 02:45:17;;;;;;;;;;;;;;;26.82;38.12;100975.31;4998524;28;709;-39
2021/06/03 02:47:43;;;;;;;;;;;;;;;26.89;37.99;100972.75;4998204;28;1016;-43
2021/06/03 02:50:11;;;;;;;;;;;;;;;26.98;37.65;100970.81;4998720;28;818;-32
2021/06/03 02:52:37;;;;;;;;;;;;;;;26.72;38.30;100970.13;5022968;28;1220;-32
2021/06/03 02:55:06;;;;;;;;;;;;;;;26.98;37.94;100968.13;5037677;28;914;-43
2021/06/03 02:57:31;;;;;;;;;;;;;;;27.09;37.52;100975.03;5020520;28;1906;-42
2021/06/03 02:59:56;;;;;;;;;;;;;;;27.07;37.54;100971.66;5037713;28;875;-34
2021/06/03 03:02:21;;;;;;;;;;;;;;;26.80;38.41;100973.78;5027848;28;998;-43
2021/06/03 03:04:47;;;;;;;;;;;;;;;26.94;38.02;100975.75;4998154;28;840;-29
2021/06/03 03:07:12;;;;;;;;;;;;;;;26.81;38.02;100970.91;4997990;28;803;-43
2021/06/03 03:09:37;;;;;;;;;;;;;;;26.65;38.40;100982.63;4998249;28;851;-40
2021/06/03 03:12:03;;;;;;;;;;;;;;;26.75;37.78;100979.72;4998263;28;781;-43
2021/06/03 03:14:28;;;;;;;;;;;;;;;26.77;38.25;100981.22;4997748;28;1067;-32
2021/06/03 03:16:54;;;;;;;;;;;;;;;26.80;37.72;100981.88;4997813;28;1016;-32
2021/06/03 03:19:19;;;;;;;;;;;;;;;26.59;38.32;100980.63;4997612;28;1910;-43
2021/06/03 03:21:45;;;;;;;;;;;;;;;27.07;37.73;100988.72;4997795;28;776;-43
2021/06/03 03:24:10;;;;;;;;;;;;;;;26.80;38.09;100985.44;4997887;28;785;-43
2021/06/03 03:26:35;;;;;;;;;;;;;;;26.67;38.61;100991.38;4998096;28;888;-43
2021/06/03 03:29:00;;;;;;;;;;;;;;;26.90;38.27;100982.50;4997589;28;772;-34
2021/06/03 03:31:26;;;;;;;;;;;;;;;27.08;37.67;100982.28;4998146;28;891;-43
2021/06/03 03:33:51;;;;;;;;;;;;;;;26.75;38.52;100985.97;4997400;28;977;-43
2021/06/03 03:36:16;;;;;;;;;;;;;;;26.75;38.52;100993.19;4997509;28;741;-35
2021/06/03 03:38:42;;;;;;;;;;;;;;;26.95;38.19;100985.53;4997709;28;1960;-43
2021/06/03 03:41:07;;;;;;;;;;;;;;;26.72;38.61;100993.56;4998083;28;777;-32
2021/06/03 03:43:32;;;;;;;;;;;;;;;26.62;39.27;100983.81;4997328;28;852;-31
2021/06/03 03:45:58;;;;;;;;;;;;;;;26.86;38.03;100984.72;4997745;28;756;-44
2021/06/03 03:48:23;;;;;;;;;;;;;;;26.15;33.24;100978.16;4997154;28;954;-43
2021/06/03 03:50:48;;;;;;;;;;;;;;;26.16;35.26;100977.16;4997315;28;848;-44
2021/06/03 03:53:14;;;;;;;;;;;;;;;25.88;35.05;100972.13;5032397;28;1093;-44
2021/06/03 03:55:39;;;;;;;;;;;;;;;25.20;34.37;100966.81;5035178;28;1107;-36
2021/06/03 03:58:04;;;;;;;;;;;;;;;24.37;35.88;100963.75;5036630;28;1905;-35
2021/06/03 04:00:30;;;;;;;;;;;;;;;22.30;39.17;100962.28;5036750;28;788;-43
2021/06/03 04:02:56;;;;;;;;;;;;;;;23.12;38.18;100968.88;5018198;28;1019;-36
2021/06/03 04:05:21;;;;;;;;;;;;;;;25.03;35.17;100964.06;4997071;28;773;-38
2021/06/03 04:07:46;;;;;;;;;;;;;;;26.35;33.64;100958.94;4997005;28;888;-37
2021/06/03 04:10:13;;;;;;;;;;;;;;;25.97;35.65;100964.03;4997412;28;765;-43
2021/06/03 04:12:38;;;;;;;;;;;;;;;26.32;35.32;100966.50;4997014;28;1298;-34
2021/06/03 04:15:04;;;;;;;;;;;;;;;26.33;36.06;100966.34;4997017;28;854;-37
2021/06/03 04:17:29;;;;;;;;;;;;;;;26.10;36.15;100966.19;4996533;28;1910;-45
2021/06/03 04:19:55;;;;;;;;;;;;;;;26.41;35.94;100962.78;4997063;28;851;-41
2021/06/03 04:22:20;;;;;;;;;;;;;;;26.18;36.33;100979.66;4996616;28;637;-45
2021/06/03 04:24:45;;;;;;;;;;;;;;;26.34;36.27;100978.00;4997302;28;820;-46
2021/06/03 04:27:10;;;;;;;;;;;;;;;26.60;35.69;100975.06;4996692;28;784;-33
2021/06/03 04:29:36;;;;;;;;;;;;;;;26.18;36.30;100968.88;4996784;28;778;-45
2021/06/03 04:32:01;;;;;;;;;;;;;;;26.30;36.21;100972.06;5000223;28;957;-34
2021/06/03 04:34:26;;;;;;;;;;;;;;;26.55;36.09;100968.47;5000806;28;840;-36
2021/06/03 04:36:51;;;;;;;;;;;;;;;26.26;36.54;100968.88;5001064;28;792;-41
2021/06/03 04:39:17;;;;;;;;;;;;;;;26.22;36.80;100974.78;5001115;28;1964;-36
2021/06/03 04:41:42;;;;;;;;;;;;;;;26.75;35.69;100972.47;5000722;28;876;-32
2021/06/03 04:44:07;;;;;;;;;;;;;;;26.53;36.17;100974.91;5000791;28;709;-34
2021/06/03 04:46:33;;;;;;;;;;;;;;;26.29;36.60;100976.59;5001136;28;780;-35
2021/06/03 04:48:58;;;;;;;;;;;;;;;26.69;36.28;100972.31;5000438;28;997;-30
2021/06/03 04:51:23;;;;;;;;;;;;;;;26.46;36.41;100975.78;5005497;28;1110;-33
2021/06/03 04:53:48;;;;;;;;;;;;;;;25.87;34.76;100970.44;5040336;28;791;-36
2021/06/03 04:56:14;;;;;;;;;;;;;;;26.20;36.20;100980.34;5040201;28;898;-32
2021/06/03 04:58:39;;;;;;;;;;;;;;;26.75;36.21;100982.41;5039914;28;1969;-34
2021/06/03 05:01:04;;;;;;;;;;;;;;;26.54;37.09;100978.44;5040276;28;736;-40
2021/06/03 05:03:30;;;;;;;;;;;;;;;26.71;36.49;100975.69;5011219;28;1023;-34
2021/06/03 05:05:55;;;;;;;;;;;;;;;26.99;36.18;100978.75;5000441;28;765;-43
2021/06/03 05:08:20;;;;;;;;;;;;;;;26.69;36.75;100973.16;5000728;28;790;-36
2021/06/03 05:10:46;;;;;;;;;;;;;;;26.65;37.18;100982.63;5000472;28;799;-34
2021/06/03 05:13:11;;;;;;;;;;;;;;;27.09;36.65;100977.72;4999861;28;1433;-45
2021/06/03 05:15:37;;;;;;;;;;;;;;;26.99;36.65;100978.75;5000633;28;840;-37
2021/06/03 05:18:02;;;;;;;;;;;;;;;26.75;37.26;100975.16;4999608;28;1902;-41
2021/06/03 05:20:27;;;;;;;;;;;;;;;26.92;36.86;100977.78;5000202;28;744;-34
2021/06/03 05:22:54;;;;;;;;;;;;;;;27.10;36.43;100976.69;4999900;28;842;-43
2021/06/03 05:25:23;;;;;;;;;;;;;;;26.82;37.23;100971.75;4999599;28;860;-34
2021/06/03 05:27:48;;;;;;;;;;;;;;;26.98;36.76;100973.53;5000135;28;774;-42
2021/06/03 05:30:14;;;;;;;;;;;;;;;27.22;36.38;100980.69;5000043;28;819;-43
2021/06/03 05:32:39;;;;;;;;;;;;;;;26.93;37.08;100986.72;4999171;28;954;-42
2021/06/03 05:35:05;;;;;;;;;;;;;;;26.84;37.29;100988.63;4999694;28;800;-36
2021/06/03 05:37:31;;;;;;;;;;;;;;;26.86;37.16;101000.09;5000079;28;1960;-40
2021/06/03 05:39:56;;;;;;;;;;;;;;;26.68;37.82;100993.06;5000055;28;872;-32
2021/06/03 05:42:21;;;;;;;;;;;;;;;26.92;37.53;100991.28;4999370;28;800;-33
2021/06/03 05:44:47;;;;;;;;;;;;;;;27.19;36.84;100994.56;4999432;28;1461;-32
2021/06/03 05:47:12;;;;;;;;;;;;;;;26.82;37.47;100991.50;4999179;28;1111;-42
2021/06/03 05:49:37;;;;;;;;;;;;;;;26.70;37.40;100996.44;4999347;28;890;-36
2021/06/03 05:52:03;;;;;;;;;;;;;;;27.07;37.43;100999.50;5014877;28;1138;-48
2021/06/03 05:54:28;;;;;;;;;;;;;;;26.80;37.67;101001.63;5039266;28;816;-33
2021/06/03 05:56:54;;;;;;;;;;;;;;;26.68;37.83;100998.44;5038833;28;768;-35
2021/06/03 05:59:19;;;;;;;;;;;;;;;27.09;37.30;100991.22;5038810;28;1902;-35
2021/06/03 06:01:44;;;;;;;;;;;;;;;26.85;37.64;101001.94;5037283;28;984;-35
2021/06/03 06:05:55;;;;;;;;;;;;;;;26.73;38.08;101009.56;5000760;28;936;-35
2021/06/03 06:06:55;;;;;;;;;;;;;;;26.89;37.66;101008.66;4998626;28;1624;-34
2021/06/03 06:09:21;;;;;;;;;;;;;;;26.60;38.24;101017.38;4999573;28;846;-34
2021/06/03 06:11:46;;;;;;;;;;;;;;;26.66;38.49;101013.97;4998694;28;852;-34
2021/06/03 06:14:11;;;;;;;;;;;;;;;26.74;37.79;101013.94;4998944;28;1098;-31
2021/06/03 06:16:37;;;;;;;;;;;;;;;26.54;38.63;101018.91;4999523;28;799;-39
2021/06/03 06:19:03;;;;;;;;;;;;;;;26.60;38.57;101023.63;4998259;28;1911;-35
2021/06/03 06:21:28;;;;;;;;;;;;;;;26.81;38.19;101024.06;4998849;28;760;-35
2021/06/03 06:23:54;;;;;;;;;;;;;;;26.60;38.76;101023.63;4999064;28;726;-43
2021/06/03 06:26:19;;;;;;;;;;;;;;;26.66;38.69;101019.38;4998777;28;792;-34
2021/06/03 06:28:45;;;;;;;;;;;;;;;26.81;38.44;101026.75;4998872;28;820;-43
2021/06/03 06:31:10;;;;;;;;;;;;;;;26.60;38.72;101023.63;4998895;28;792;-35
2021/06/03 06:33:37;;;;;;;;;;;;;;;26.68;38.84;101027.28;4997989;28;969;-43
2021/06/03 06:36:02;;;;;;;;;;;;;;;27.01;37.87;101027.16;4998915;28;729;-32
2021/06/03 06:38:28;;;;;;;;;;;;;;;26.75;38.59;101028.28;4998656;28;1890;-33
2021/06/03 06:40:53;;;;;;;;;;;;;;;26.66;38.84;101019.38;4998384;28;520;-30
2021/06/03 06:43:18;;;;;;;;;;;;;;;27.07;37.88;101015.72;4998309;28;827;-42
2021/06/03 06:45:44;;;;;;;;;;;;;;;26.88;38.22;101030.44;4998600;28;839;-34
2021/06/03 06:48:10;;;;;;;;;;;;;;;26.66;38.57;101030.16;5008020;28;961;-42
2021/06/03 06:50:35;;;;;;;;;;;;;;;26.83;38.26;101025.56;4999270;28;824;-35
2021/06/03 06:53:01;;;;;;;;;;;;;;;27.05;38.01;101035.78;5033427;28;1137;-43
2021/06/03 06:55:26;;;;;;;;;;;;;;;26.69;38.46;101042.47;5037861;28;808;-36
2021/06/03 06:57:53;;;;;;;;;;;;;;;26.70;38.63;101047.69;5037195;28;1969;-41
2021/06/03 07:00:18;;;;;;;;;;;;;;;26.98;38.23;101049.97;5019821;28;862;-37
2021/06/03 07:02:43;;;;;;;;;;;;;;;26.72;38.57;101051.06;5021428;28;1000;-32
2021/06/03 07:05:09;;;;;;;;;;;;;;;26.92;38.34;101056.06;4997837;28;928;-34
2021/06/03 07:07:35;;;;;;;;;;;;;;;26.96;37.06;101057.38;4998324;28;761;-34
2021/06/03 07:10:00;;;;;;;;;;;;;;;26.59;38.28;101065.06;4997658;28;990;-32
2021/06/03 07:12:25;;;;;;;;;;;;;;;26.67;38.25;101064.25;4997619;28;1104;-34
2021/06/03 07:14:51;;;;;;;;;;;;;;;26.88;37.56;101071.75;4998437;28;807;-29
2021/06/03 07:17:17;;;;;;;;;;;;;;;26.53;36.91;101063.94;4997366;28;1158;-29
2021/06/03 07:19:42;;;;;;;;;;;;;;;26.42;37.59;101069.69;4997649;28;1969;-28
2021/06/03 07:22:07;;;;;;;;;;;;;;;26.58;35.71;101076.91;4997813;28;887;-30
2021/06/03 07:24:36;;;;;;;;;;;;;;;26.34;35.69;101067.81;4998062;28;741;-30
2021/06/03 07:27:01;;;;;;;;;;;;;;;26.20;34.76;101071.16;4997609;28;856;-34
2021/06/03 07:29:27;;;;;;;;;;;;;;;26.52;35.20;101081.13;4997801;28;884;-35
2021/06/03 07:31:52;;;;;;;;;;;;;;;26.59;36.85;101081.28;4997213;28;1004;-35
2021/06/03 07:34:17;;;;;;;;;;;;;;;26.36;38.13;101073.88;4997492;28;945;-43
2021/06/03 07:36:43;;;;;;;;;;;;;;;26.52;37.34;101081.13;4997792;28;817;-35
2021/06/03 07:39:08;;;;;;;;;;;;;;;26.50;37.94;101079.59;4997154;28;1881;-30
2021/06/03 07:41:33;;;;;;;;;;;;;;;26.35;37.88;101088.41;4997256;28;874;-35
2021/06/03 07:43:59;;;;;;;;;;;;;;;26.55;36.68;101089.88;4997508;28;780;-34
2021/06/03 07:46:24;;;;;;;;;;;;;;;26.51;36.34;101095.63;4997434;28;887;-43
2021/06/03 07:48:49;;;;;;;;;;;;;;;26.23;37.21;101103.19;4999208;28;949;-42
2021/06/03 07:51:15;;;;;;;;;;;;;;;26.27;36.09;101096.47;4999935;28;1152;-35
2021/06/03 07:53:40;;;;;;;;;;;;;;;26.40;37.67;101091.44;5036509;28;928;-39
2021/06/03 07:56:05;;;;;;;;;;;;;;;26.19;37.91;101085.69;5036511;28;827;-44
2021/06/03 07:58:30;;;;;;;;;;;;;;;26.57;37.33;101096.81;5036235;28;1959;-43
2021/06/03 08:00:56;;;;;;;;;;;;;;;26.65;37.53;101091.41;5036588;28;773;-43
2021/06/03 08:03:21;;;;;;;;;;;;;;;26.33;37.98;101097.66;5010001;28;1003;-34
2021/06/03 08:05:46;;;;;;;;;;;;;;;26.20;36.82;101096.28;4996379;28;815;-37
2021/06/03 08:08:12;;;;;;;;;;;;;;;26.15;36.53;101090.56;4997038;28;523;-32
2021/06/03 08:10:38;;;;;;;;;;;;;;;26.06;35.95;101103.19;4996984;28;788;-33
2021/06/03 08:13:04;;;;;;;;;;;;;;;25.97;36.71;101107.75;5004338;28;1296;-36
2021/06/03 08:15:29;;;;;;;;;;;;;;;25.98;36.66;101112.09;4998996;28;1127;-39
2021/06/03 08:17:55;;;;;;;;;;;;;;;25.99;36.36;101111.09;4996588;28;1969;-36
2021/06/03 08:20:26;;;;;;;;;;;;;;;25.76;36.45;101108.19;4996636;28;837;-35
2021/06/03 08:22:52;;;;;;;;;;;;;;;25.91;36.28;101108.38;4996840;28;844;-36
2021/06/03 08:25:17;;;;;;;;;;;;;;;26.06;36.97;101111.28;4996552;28;749;-35
2021/06/03 08:27:42;;;;;;;;;;;;;;;26.04;37.61;101111.44;4997136;28;821;-34
2021/06/03 08:30:09;;;;;;;;;;;;;;;26.51;36.58;101111.81;4997346;28;825;-43
2021/06/03 08:32:35;;;;;;;;;;;;;;;27.13;35.85;101109.50;4998559;28;996;-33
2021/06/03 08:35:00;;;;;;;;;;;;;;;26.64;37.00;101107.75;4996590;28;929;-36
2021/06/03 08:37:25;;;;;;;;;;;;;;;26.52;37.50;101116.22;4996960;28;765;-44
2021/06/03 08:39:50;;;;;;;;;;;;;;;26.61;37.56;101105.41;4996188;28;1906;-36
2021/06/03 08:42:16;;;;;;;;;;;;;;;26.28;38.12;101090.91;4996709;28;897;-42
2021/06/03 08:44:41;;;;;;;;;;;;;;;26.32;38.02;101107.59;4997160;28;761;-36
2021/06/03 08:47:08;;;;;;;;;;;;;;;26.27;37.50;101113.50;4996010;28;965;-35
2021/06/03 08:49:33;;;;;;;;;;;;;;;26.16;38.58;101108.41;4996792;28;780;-43
2021/06/03 08:52:03;;;;;;;;;;;;;;;26.44;37.98;101115.38;5011394;28;1193;-44
2021/06/03 08:54:30;;;;;;;;;;;;;;;26.53;37.75;101114.34;5035371;28;1000;-39
2021/06/03 08:56:55;;;;;;;;;;;;;;;26.29;38.36;101116.84;5036153;28;864;-35
2021/06/03 08:59:21;;;;;;;;;;;;;;;26.44;38.24;101115.38;5017815;28;1906;-44
2021/06/03 09:01:46;;;;;;;;;;;;;;;26.34;38.02;101116.38;5034324;28;944;-42
2021/06/03 09:04:11;;;;;;;;;;;;;;;26.23;38.52;101113.97;4998244;28;940;-44
2021/06/03 09:06:37;;;;;;;;;;;;;;;26.47;38.03;101121.28;4997012;28;788;-36
2021/06/03 09:09:02;;;;;;;;;;;;;;;26.52;37.94;101126.16;4996210;28;765;-31
2021/06/03 09:11:28;;;;;;;;;;;;;;;26.32;38.53;101122.91;4996870;28;756;-37
2021/06/03 09:13:55;;;;;;;;;;;;;;;26.48;38.17;101120.25;4996651;28;1305;-34
2021/06/03 09:16:25;;;;;;;;;;;;;;;26.41;38.22;101119.22;4996977;28;753;-30
2021/06/03 09:18:54;;;;;;;;;;;;;;;26.25;38.48;101123.59;5001952;28;1914;-40
2021/06/03 09:21:27;;;;;;;;;;;;;;;26.50;38.39;101112.84;5035834;28;1094;-36
2021/06/03 09:23:56;;;;;;;;;;;;;;;26.47;38.25;101115.88;5039156;28;844;-43
2021/06/03 09:26:21;;;;;;;;;;;;;;;26.33;38.86;101121.94;5039125;28;946;-33
2021/06/03 09:28:47;;;;;;;;;;;;;;;26.45;37.84;101125.97;5039336;28;757;-34
2021/06/03 09:31:12;;;;;;;;;;;;;;;26.46;38.03;101124.13;5038894;28;772;-35
2021/06/03 09:33:51;;;;;;;;;;;;;;;26.28;38.50;101133.19;5008786;28;1019;-35
2021/06/03 09:36:21;;;;;;;;;;;;;;;26.27;38.78;101126.97;4999751;28;777;-34
2021/06/03 09:38:56;;;;;;;;;;;;;;;26.52;38.23;101129.69;5000073;28;1902;-34
2021/06/03 09:41:22;;;;;;;;;;;;;;;26.31;38.78;101129.34;4999296;28;1540;-34
2021/06/03 09:43:47;;;;;;;;;;;;;;;26.22;38.89;101128.47;4999279;28;1545;-34
2021/06/03 09:46:16;;;;;;;;;;;;;;;26.45;38.54;101135.91;4999454;28;757;-34
2021/06/03 09:48:41;;;;;;;;;;;;;;;26.25;38.62;101130.84;4999277;28;961;-44
2021/06/03 09:51:16;;;;;;;;;;;;;;;26.22;38.99;101134.72;4999680;28;1086;-36
2021/06/03 09:53:54;;;;;;;;;;;;;;;26.60;38.15;101133.38;5038619;28;891;-37
2021/06/03 09:56:28;;;;;;;;;;;;;;;26.48;38.50;101130.19;5038239;28;923;-38
2021/06/03 09:58:53;;;;;;;;;;;;;;;26.44;38.59;101126.16;5039103;28;1906;-37
2021/06/03 10:01:37;;;;;;;;;;;;;;;26.59;38.23;101129.00;5038738;28;788;-40
2021/06/03 10:04:03;;;;;;;;;;;;;;;26.28;38.88;101125.94;5017924;28;948;-43
2021/06/03 10:06:28;;;;;;;;;;;;;;;26.48;38.38;101128.34;5018885;28;737;-34
2021/06/03 10:08:53;;;;;;;;;;;;;;;26.39;38.62;101135.59;5018364;28;860;-34
2021/06/03 10:11:37;;;;;;;;;;;;;;;26.26;39.07;101133.38;5018572;28;811;-35
2021/06/03 10:14:16;;;;;;;;;;;;;;;27.05;37.38;101146.50;5018475;28;1212;-42
2021/06/03 10:16:42;;;;;;;;;;;;;;;26.87;37.54;101134.03;5017984;28;1123;-35
2021/06/03 10:19:17;;;;;;;;;;;;;;;26.71;37.79;101134.91;4998666;28;1926;-36
2021/06/03 10:21:43;;;;;;;;;;;;;;;26.93;36.39;101129.78;4998972;28;741;-43
2021/06/03 10:24:08;;;;;;;;;;;;;;;26.51;37.42;101138.78;4998523;28;737;-35
2021/06/03 10:26:52;;;;;;;;;;;;;;;26.58;37.75;101135.41;4998994;28;867;-43
2021/06/03 10:29:17;;;;;;;;;;;;;;;27.22;36.48;101131.94;4997673;28;805;-40
2021/06/03 10:31:43;;;;;;;;;;;;;;;26.76;37.18;101133.38;4997907;28;985;-32
2021/06/03 10:34:08;;;;;;;;;;;;;;;26.80;37.05;101123.06;4998508;28;993;-43
2021/06/03 10:36:34;;;;;;;;;;;;;;;26.62;37.08;101124.13;4998796;28;820;-33
2021/06/03 10:38:59;;;;;;;;;;;;;;;26.48;38.15;101131.03;4980690;28;1910;-38
2021/06/03 10:41:24;;;;;;;;;;;;;;;26.86;37.45;101124.25;4980841;28;781;-35
2021/06/03 10:43:50;;;;;;;;;;;;;;;27.26;36.38;101127.00;4981276;28;733;-33
2021/06/03 10:46:15;;;;;;;;;;;;;;;26.84;37.39;101126.28;4997881;28;800;-33
2021/06/03 10:48:41;;;;;;;;;;;;;;;26.83;37.65;101132.66;4998073;28;946;-43
2021/06/03 10:51:07;;;;;;;;;;;;;;;26.73;37.96;101122.06;4998364;28;1098;-41
2021/06/03 10:53:33;;;;;;;;;;;;;;;26.53;38.31;101119.72;5019884;28;773;-37
2021/06/03 10:56:08;;;;;;;;;;;;;;;27.38;36.58;101120.22;5020392;28;775;-42
2021/06/03 10:58:34;;;;;;;;;;;;;;;26.92;37.53;101137.06;5037467;28;1906;-40
2021/06/03 11:01:05;;;;;;;;;;;;;;;26.80;37.90;101128.47;5037676;28;725;-43
2021/06/03 11:03:45;;;;;;;;;;;;;;;26.66;37.88;101135.41;5009228;28;987;-33
2021/06/03 11:06:12;;;;;;;;;;;;;;;26.55;38.37;101119.56;4998358;28;1186;-42
2021/06/03 11:08:39;;;;;;;;;;;;;;;27.31;36.85;101127.31;4997926;28;726;-34
2021/06/03 11:11:14;;;;;;;;;;;;;;;26.95;37.23;101123.22;4997786;28;796;-41
2021/06/03 11:13:39;;;;;;;;;;;;;;;26.74;37.92;101129.97;4997698;28;1246;-37
2021/06/03 11:16:05;;;;;;;;;;;;;;;26.84;38.17;101132.50;4997751;28;824;-34
2021/06/03 11:18:49;;;;;;;;;;;;;;;26.67;38.13;101134.41;4997550;28;1977;-42
2021/06/03 11:24:00;;;;;;;;;;;;;;;27.35;34.86;101152.13;4997325;28;611;-34
2021/06/03 11:26:38;;;;;;;;;;;;;;;26.64;35.12;101146.38;4997697;28;733;-32
2021/06/03 11:29:07;;;;;;;;;;;;;;;26.87;35.66;101137.56;4997478;28;812;-34
2021/06/03 11:31:32;;;;;;;;;;;;;;;26.84;34.21;101140.59;4997132;28;761;-32
2021/06/03 11:34:07;;;;;;;;;;;;;;;26.50;35.35;101123.63;4997240;28;1017;-33
2021/06/03 11:36:33;;;;;;;;;;;;;;;26.97;35.25;101140.09;4997373;28;919;-43
2021/06/03 11:38:58;;;;;;;;;;;;;;;26.76;35.51;101151.41;4996858;28;1967;-41
2021/06/03 11:41:39;;;;;;;;;;;;;;;27.20;35.09;101141.22;4997520;28;755;-43
2021/06/03 11:44:11;;;;;;;;;;;;;;;26.94;35.46;101132.34;4997861;28;781;-32
2021/06/03 11:46:48;;;;;;;;;;;;;;;26.87;36.09;101134.03;4997168;28;749;-36
2021/06/03 11:49:34;;;;;;;;;;;;;;;26.92;35.58;101130.81;5015674;28;922;-42
2021/06/03 11:52:06;;;;;;;;;;;;;;;26.59;36.15;101126.31;5009838;28;1518;-40
2021/06/03 11:54:50;;;;;;;;;;;;;;;27.05;36.42;101122.19;5033518;28;919;-42
2021/06/03 11:57:15;;;;;;;;;;;;;;;26.89;37.24;101126.59;5036638;28;725;-44
2021/06/03 11:59:54;;;;;;;;;;;;;;;27.43;36.27;101124.22;5036175;28;1913;-37
2021/06/03 12:02:28;;;;;;;;;;;;;;;27.13;36.26;101141.91;5027661;28;959;-35
2021/06/03 12:05:08;;;;;;;;;;;;;;;27.00;36.27;101115.44;4997311;28;736;-33
2021/06/03 12:07:52;;;;;;;;;;;;;;;27.14;36.95;101110.38;4996846;28;761;-44
2021/06/03 12:10:40;;;;;;;;;;;;;;;26.95;37.34;101133.16;4997149;28;733;-36
2021/06/03 12:13:18;;;;;;;;;;;;;;;27.14;34.84;101124.69;4979024;28;1327;-44
2021/06/03 12:15:44;;;;;;;;;;;;;;;26.80;35.41;101130.31;4997197;28;776;-44
2021/06/03 12:18:09;;;;;;;;;;;;;;;27.32;33.63;101131.72;4996677;28;1902;-37
2021/06/03 12:20:34;;;;;;;;;;;;;;;27.00;34.09;101141.59;4997056;28;833;-43
2021/06/03 12:23:03;;;;;;;;;;;;;;;27.13;35.10;101141.91;4996721;28;793;-35
2021/06/03 12:25:35;;;;;;;;;;;;;;;27.08;33.16;101128.09;4996961;28;846;-36
2021/06/03 12:28:00;;;;;;;;;;;;;;;26.93;33.71;101145.97;4997221;28;756;-37
2021/06/03 12:30:29;;;;;;;;;;;;;;;27.44;32.94;101134.91;4996774;28;813;-42
2021/06/03 12:32:58;;;;;;;;;;;;;;;27.07;33.38;101144.47;4996361;28;1008;-42
2021/06/03 12:35:29;;;;;;;;;;;;;;;27.16;33.97;101150.69;4996838;28;788;-43
2021/06/03 12:37:55;;;;;;;;;;;;;;;27.09;33.38;101139.75;4996520;28;1969;-43
2021/06/03 12:40:21;;;;;;;;;;;;;;;26.92;33.52;101147.84;4996754;28;753;-40
2021/06/03 12:42:46;;;;;;;;;;;;;;;27.26;32.35;101146.75;4997075;28;777;-33
2021/06/03 12:45:12;;;;;;;;;;;;;;;26.90;32.92;101145.34;4996488;28;801;-43
2021/06/03 12:47:38;;;;;;;;;;;;;;;27.26;32.87;101140.50;4996172;28;993;-35
2021/06/03 12:50:03;;;;;;;;;;;;;;;26.45;33.76;101131.38;4996522;28;991;-42
2021/06/03 12:52:28;;;;;;;;;;;;;;;26.71;34.03;101137.59;5021280;28;1090;-36
2021/06/03 12:54:56;;;;;;;;;;;;;;;26.57;32.99;101144.53;5039533;28;823;-40